createdAt,value
2022-09-12T00:04:16.021Z,21.42
2022-09-12T00:09:17.499Z,21.42
2022-09-12T00:14:19.059Z,21.28
2022-09-12T00:19:20.571Z,21.36
2022-09-12T00:24:22.233Z,21.33
2022-09-12T00:29:23.742Z,21.39
2022-09-12T00:34:25.259Z,21.33
2022-09-12T00:39:26.750Z,21.33
2022-09-12T00:44:28.320Z,21.37
2022-09-12T00:49:32.724Z,21.35
2022-09-12T00:54:43.964Z,21.19
2022-09-12T00:59:48.714Z,21.26
2022-09-12T01:04:50.209Z,21.17
2022-09-12T01:09:51.728Z,21.09
2022-09-12T01:14:53.207Z,21.03
2022-09-12T01:20:13.455Z,20.95
2022-09-12T01:25:33.925Z,21.03
2022-09-12T01:30:49.755Z,20.81
2022-09-12T01:36:04.540Z,21.01
2022-09-12T01:41:21.257Z,21.12
2022-09-12T01:46:33.184Z,21.08
2022-09-12T01:51:39.736Z,21.17
2022-09-12T01:56:41.595Z,21.22
2022-09-12T02:01:56.034Z,20.98
2022-09-12T02:07:03.735Z,21.02
2022-09-12T02:12:05.907Z,21.16
2022-09-12T02:17:12.220Z,21.23
2022-09-12T02:22:16.039Z,21.10
2022-09-12T02:27:37.897Z,21.08
2022-09-12T02:32:48.915Z,20.89
2022-09-12T02:38:00.962Z,20.82
2022-09-12T02:43:03.271Z,20.84
2022-09-12T02:48:08.414Z,20.91
2022-09-12T02:53:09.888Z,20.94
2022-09-12T02:58:13.638Z,20.95
2022-09-12T03:03:43.174Z,20.61
2022-09-12T03:08:57.315Z,20.58
2022-09-12T03:14:21.272Z,20.80
2022-09-12T03:19:45.166Z,20.79
2022-09-12T03:25:04.658Z,20.83
2022-09-12T03:30:06.729Z,20.99
2022-09-12T03:35:08.170Z,20.92
2022-09-12T03:40:10.488Z,20.62
2022-09-12T03:45:12.117Z,20.65
2022-09-12T03:50:13.594Z,20.42
2022-09-12T03:55:15.238Z,20.56
2022-09-12T04:00:19.838Z,20.67
2022-09-12T04:05:21.550Z,20.49
2022-09-12T04:10:23.042Z,20.30
2022-09-12T04:15:25.598Z,20.62
2022-09-12T04:20:27.070Z,20.69
2022-09-12T04:25:28.530Z,20.79
2022-09-12T04:30:30.118Z,20.87
2022-09-12T04:35:31.650Z,20.78
2022-09-12T04:40:33.324Z,20.90
2022-09-12T04:45:34.848Z,21.03
2022-09-12T04:50:36.348Z,21.06
2022-09-12T04:55:37.823Z,21.15
2022-09-12T05:00:39.291Z,20.96
2022-09-12T05:05:40.782Z,20.66
2022-09-12T05:10:42.785Z,20.64
2022-09-12T05:15:44.619Z,20.86
2022-09-12T05:20:46.087Z,20.86
2022-09-12T05:25:54.919Z,20.90
2022-09-12T05:31:13.130Z,20.93
2022-09-12T05:36:25.032Z,21.05
2022-09-12T05:41:29.365Z,21.10
2022-09-12T05:46:32.167Z,21.22
2022-09-12T05:51:35.212Z,21.17
2022-09-12T05:56:41.448Z,21.03
2022-09-12T06:01:43.055Z,21.23
2022-09-12T06:06:48.712Z,21.27
2022-09-12T06:11:50.215Z,21.35
2022-09-12T06:16:51.716Z,21.17
2022-09-12T06:21:53.500Z,21.21
2022-09-12T06:26:54.971Z,21.53
2022-09-12T06:31:56.434Z,21.61
2022-09-12T06:36:57.933Z,21.70
2022-09-12T06:41:59.398Z,21.56
2022-09-12T06:47:00.906Z,21.73
2022-09-12T06:52:02.730Z,21.58
2022-09-12T06:57:04.252Z,21.41
2022-09-12T07:02:06.140Z,21.82
2022-09-12T07:07:07.657Z,21.90
2022-09-12T07:12:09.211Z,22.06
2022-09-12T07:17:10.723Z,21.92
2022-09-12T07:22:12.284Z,22.22
2022-09-12T07:27:13.756Z,22.11
2022-09-12T07:32:15.226Z,22.06
2022-09-12T07:37:16.728Z,22.27
2022-09-12T07:42:18.240Z,22.20
2022-09-12T07:47:19.720Z,22.15
2022-09-12T07:52:21.240Z,21.74
2022-09-12T07:57:22.951Z,22.20
2022-09-12T08:02:24.453Z,22.31
2022-09-12T08:07:26.005Z,22.32
2022-09-12T08:12:27.984Z,22.28
2022-09-12T08:17:29.787Z,22.53
2022-09-12T08:22:31.461Z,22.45
2022-09-12T08:27:32.924Z,22.60
2022-09-12T08:32:34.631Z,22.49
2022-09-12T08:37:36.116Z,22.58
2022-09-12T08:42:43.485Z,22.66
2022-09-12T08:47:45.072Z,22.71
2022-09-12T08:52:53.694Z,22.65
2022-09-12T08:57:55.283Z,22.74
2022-09-12T09:03:02.636Z,22.78
2022-09-12T09:08:29.664Z,22.84
2022-09-12T09:14:19.102Z,22.92
2022-09-12T09:19:23.319Z,23.06
2022-09-12T09:24:38.647Z,23.07
2022-09-12T09:29:45.374Z,23.25
2022-09-12T09:34:46.876Z,23.46
2022-09-12T09:39:57.277Z,23.46
2022-09-12T09:45:00.079Z,23.52
2022-09-12T09:50:01.560Z,23.71
2022-09-12T09:55:03.096Z,23.64
2022-09-12T10:00:25.794Z,23.90
2022-09-12T10:05:28.549Z,24.14
2022-09-12T10:10:30.036Z,24.34
2022-09-12T10:15:31.860Z,24.35
2022-09-12T10:20:43.928Z,24.44
2022-09-12T10:25:48.920Z,24.56
2022-09-12T10:30:53.334Z,24.46
2022-09-12T10:35:55.117Z,24.31
2022-09-12T10:41:03.626Z,24.13
2022-09-12T10:46:21.579Z,24.38
2022-09-12T10:51:26.011Z,24.63
2022-09-12T10:56:39.295Z,24.92
2022-09-12T11:01:54.861Z,25.02
2022-09-12T11:07:06.467Z,25.14
2022-09-12T11:12:28.080Z,25.01
2022-09-12T11:17:53.515Z,25.28
2022-09-12T11:23:40.535Z,25.07
2022-09-12T11:29:00.880Z,25.69
2022-09-12T11:34:03.180Z,25.94
2022-09-12T11:39:15.813Z,26.07
2022-09-12T11:44:24.739Z,26.02
2022-09-12T11:49:36.084Z,26.11
2022-09-12T11:54:53.964Z,26.00
2022-09-12T12:00:07.918Z,25.84
2022-09-12T12:05:37.509Z,25.69
2022-09-12T12:10:39.812Z,25.48
2022-09-12T12:15:48.516Z,24.95
2022-09-12T12:20:50.526Z,25.05
2022-09-12T12:25:53.873Z,24.84
2022-09-12T12:30:55.277Z,24.90
2022-09-12T12:35:59.500Z,24.96
2022-09-12T12:41:18.984Z,24.71
2022-09-12T12:46:24.044Z,25.17
2022-09-12T12:51:53.807Z,25.28
2022-09-12T12:57:24.851Z,25.34
2022-09-12T13:02:31.695Z,25.33
2022-09-12T13:07:36.229Z,25.27
2022-09-12T13:12:43.906Z,25.25
2022-09-12T13:17:46.828Z,24.87
2022-09-12T13:22:49.886Z,24.59
2022-09-12T13:28:07.500Z,24.01
2022-09-12T13:33:18.495Z,23.91
2022-09-12T13:38:30.315Z,24.30
2022-09-12T13:43:37.940Z,23.89
2022-09-12T13:48:39.428Z,24.22
2022-09-12T13:53:43.911Z,23.99
2022-09-12T13:58:56.750Z,24.44
2022-09-12T14:04:16.395Z,24.46
2022-09-12T14:09:34.564Z,24.04
2022-09-12T14:14:37.375Z,24.33
2022-09-12T14:19:39.853Z,24.41
2022-09-12T14:24:41.330Z,24.54
2022-09-12T14:29:43.993Z,24.40
2022-09-12T14:35:21.927Z,24.31
2022-09-12T14:40:23.795Z,24.20
2022-09-12T14:45:34.534Z,24.21
2022-09-12T14:50:36.019Z,24.20
2022-09-12T14:55:44.578Z,24.30
2022-09-12T15:01:12.368Z,24.35
2022-09-12T15:06:28.436Z,24.48
2022-09-12T15:11:29.943Z,24.16
2022-09-12T15:16:31.407Z,24.60
2022-09-12T15:21:32.897Z,24.64
2022-09-12T15:26:34.386Z,24.84
2022-09-12T15:31:35.929Z,24.75
2022-09-12T15:36:37.456Z,24.99
2022-09-12T15:41:39.103Z,24.78
2022-09-12T15:46:40.888Z,24.99
2022-09-12T15:51:42.389Z,25.16
2022-09-12T15:56:43.943Z,25.16
2022-09-12T16:01:45.463Z,25.13
2022-09-12T16:06:47.041Z,25.13
2022-09-12T16:11:48.570Z,25.14
2022-09-12T16:16:59.484Z,25.10
2022-09-12T16:22:00.959Z,25.08
2022-09-12T16:27:02.437Z,25.10
2022-09-12T16:32:04.111Z,25.15
2022-09-12T16:37:05.735Z,25.00
2022-09-12T16:42:07.236Z,25.05
2022-09-12T16:47:08.725Z,25.19
2022-09-12T16:52:10.864Z,25.17
2022-09-12T16:57:12.331Z,25.15
2022-09-12T17:02:14.085Z,25.09
2022-09-12T17:07:15.583Z,24.82
2022-09-12T17:12:17.058Z,24.84
2022-09-12T17:17:18.538Z,24.80
2022-09-12T17:22:20.032Z,24.59
2022-09-12T17:27:21.593Z,24.49
2022-09-12T17:32:23.157Z,24.51
2022-09-12T17:37:24.658Z,24.52
2022-09-12T17:42:26.138Z,24.48
2022-09-12T17:47:27.638Z,24.54
2022-09-12T17:52:29.931Z,24.38
2022-09-12T17:57:31.391Z,24.39
2022-09-12T18:02:33.486Z,24.49
2022-09-12T18:07:38.921Z,24.30
2022-09-12T18:12:43.012Z,24.31
2022-09-12T18:17:44.490Z,23.90
2022-09-12T18:22:49.159Z,24.09
2022-09-12T18:27:50.628Z,24.05
2022-09-12T18:32:52.149Z,23.86
2022-09-12T18:37:53.808Z,24.08
2022-09-12T18:42:55.295Z,24.06
2022-09-12T18:47:56.772Z,24.19
2022-09-12T18:52:59.863Z,24.22
2022-09-12T18:58:01.581Z,24.15
2022-09-12T19:03:03.070Z,24.35
2022-09-12T19:08:04.832Z,24.31
2022-09-12T19:13:06.477Z,24.27
2022-09-12T19:18:09.485Z,24.13
2022-09-12T19:23:10.999Z,24.06
2022-09-12T19:28:12.480Z,24.20
2022-09-12T19:33:13.959Z,24.33
2022-09-12T19:38:15.719Z,24.10
2022-09-12T19:43:17.201Z,24.21
2022-09-12T19:48:19.516Z,24.23
2022-09-12T19:53:21.192Z,24.27
2022-09-12T19:58:22.660Z,24.21
2022-09-12T20:03:24.179Z,24.08
2022-09-12T20:08:25.675Z,24.21
2022-09-12T20:13:27.675Z,24.30
2022-09-12T20:18:29.188Z,23.96
2022-09-12T20:23:30.873Z,24.13
2022-09-12T20:28:32.510Z,24.10
2022-09-12T20:33:34.082Z,24.11
2022-09-12T20:38:35.936Z,24.23
2022-09-12T20:43:38.603Z,24.20
2022-09-12T20:48:40.093Z,24.22
2022-09-12T20:53:41.568Z,24.12
2022-09-12T20:58:44.424Z,24.13
2022-09-12T21:03:46.398Z,24.27
2022-09-12T21:08:48.077Z,24.12
2022-09-12T21:13:50.259Z,23.75
2022-09-12T21:18:56.125Z,23.06
2022-09-12T21:24:02.296Z,22.54
2022-09-12T21:29:03.786Z,21.86
2022-09-12T21:34:05.417Z,22.19
2022-09-12T21:39:06.924Z,22.67
2022-09-12T21:44:08.592Z,22.34
2022-09-12T21:49:10.067Z,22.74
2022-09-12T21:54:11.549Z,22.76
2022-09-12T21:59:13.033Z,22.24
2022-09-12T22:04:14.548Z,22.84
2022-09-12T22:09:16.913Z,21.72
2022-09-12T22:14:18.537Z,22.68
2022-09-12T22:19:20.132Z,22.69
2022-09-12T22:24:27.467Z,22.92
2022-09-12T22:29:28.954Z,22.80
2022-09-12T22:34:30.496Z,23.18
2022-09-12T22:39:32.155Z,23.38
2022-09-12T22:44:34.114Z,23.27
2022-09-12T22:49:35.617Z,23.20
2022-09-12T22:54:37.672Z,23.04
2022-09-12T22:59:39.035Z,23.08
2022-09-12T23:04:40.617Z,23.13
2022-09-12T23:09:42.105Z,22.98
2022-09-12T23:14:43.603Z,23.03
2022-09-12T23:19:45.364Z,23.00
2022-09-12T23:24:47.178Z,22.95
2022-09-12T23:29:52.792Z,22.77
2022-09-12T23:34:54.263Z,22.40
2022-09-12T23:39:55.801Z,22.28
2022-09-12T23:44:57.395Z,21.87
2022-09-12T23:49:58.911Z,22.11
2022-09-12T23:55:00.378Z,21.86
